sensor_id;sensor_type;location;lat;lon;timestamp;temperature;humidity
76305;DHT22;65111;50.536;19.204;2023-03-21T00:00:38;9.70;88.20
76305;DHT22;65111;50.536;19.204;2023-03-21T00:03:04;9.80;88.20
76305;DHT22;65111;50.536;19.204;2023-03-21T00:05:30;9.80;88.30
76305;DHT22;65111;50.536;19.204;2023-03-21T00:07:57;9.80;88.20
76305;DHT22;65111;50.536;19.204;2023-03-21T00:10:23;9.90;88.20
76305;DHT22;65111;50.536;19.204;2023-03-21T00:12:48;9.70;88.20
76305;DHT22;65111;50.536;19.204;2023-03-21T00:15:24;9.80;88.10
76305;DHT22;65111;50.536;19.204;2023-03-21T00:17:56;9.80;88.10
76305;DHT22;65111;50.536;19.204;2023-03-21T00:20:32;9.80;88.10
76305;DHT22;65111;50.536;19.204;2023-03-21T00:22:59;9.80;88.00
76305;DHT22;65111;50.536;19.204;2023-03-21T00:25:27;9.80;88.00
76305;DHT22;65111;50.536;19.204;2023-03-21T00:27:53;9.80;88.00
76305;DHT22;65111;50.536;19.204;2023-03-21T00:30:19;9.80;88.00
76305;DHT22;65111;50.536;19.204;2023-03-21T00:32:45;9.80;88.00
76305;DHT22;65111;50.536;19.204;2023-03-21T00:35:11;9.80;88.10
76305;DHT22;65111;50.536;19.204;2023-03-21T00:37:37;9.80;88.00
76305;DHT22;65111;50.536;19.204;2023-03-21T00:40:04;9.80;88.00
76305;DHT22;65111;50.536;19.204;2023-03-21T00:42:37;9.70;88.00
76305;DHT22;65111;50.536;19.204;2023-03-21T00:45:04;9.80;88.00
76305;DHT22;65111;50.536;19.204;2023-03-21T00:47:31;9.80;88.00
76305;DHT22;65111;50.536;19.204;2023-03-21T00:49:57;9.80;88.10
76305;DHT22;65111;50.536;19.204;2023-03-21T00:52:23;9.80;88.10
76305;DHT22;65111;50.536;19.204;2023-03-21T00:54:49;9.80;88.00
76305;DHT22;65111;50.536;19.204;2023-03-21T00:57:15;9.80;88.00
76305;DHT22;65111;50.536;19.204;2023-03-21T00:59:43;9.70;88.10
76305;DHT22;65111;50.536;19.204;2023-03-21T01:02:09;9.60;88.10
76305;DHT22;65111;50.536;19.204;2023-03-21T01:04:39;9.70;88.10
76305;DHT22;65111;50.536;19.204;2023-03-21T01:07:05;9.60;88.10
76305;DHT22;65111;50.536;19.204;2023-03-21T01:09:31;9.70;88.10
76305;DHT22;65111;50.536;19.204;2023-03-21T01:11:57;9.60;88.20
76305;DHT22;65111;50.536;19.204;2023-03-21T01:14:23;9.60;88.30
76305;DHT22;65111;50.536;19.204;2023-03-21T01:16:51;9.60;88.10
76305;DHT22;65111;50.536;19.204;2023-03-21T01:19:20;9.60;88.20
76305;DHT22;65111;50.536;19.204;2023-03-21T01:21:47;9.50;88.20
76305;DHT22;65111;50.536;19.204;2023-03-21T01:24:13;9.60;88.30
76305;DHT22;65111;50.536;19.204;2023-03-21T01:26:38;9.60;88.30
76305;DHT22;65111;50.536;19.204;2023-03-21T01:29:04;9.60;88.10
76305;DHT22;65111;50.536;19.204;2023-03-21T01:31:31;9.60;88.20
76305;DHT22;65111;50.536;19.204;2023-03-21T01:33:57;9.60;88.10
76305;DHT22;65111;50.536;19.204;2023-03-21T01:36:24;9.50;88.10
76305;DHT22;65111;50.536;19.204;2023-03-21T01:38:51;9.50;87.90
76305;DHT22;65111;50.536;19.204;2023-03-21T01:41:29;9.50;88.10
76305;DHT22;65111;50.536;19.204;2023-03-21T01:43:56;9.40;88.10
76305;DHT22;65111;50.536;19.204;2023-03-21T01:52:03;9.40;88.10
76305;DHT22;65111;50.536;19.204;2023-03-21T01:54:33;9.30;88.20
76305;DHT22;65111;50.536;19.204;2023-03-21T01:57:08;9.30;88.20
76305;DHT22;65111;50.536;19.204;2023-03-21T01:59:43;9.30;88.10
76305;DHT22;65111;50.536;19.204;2023-03-21T02:02:14;9.20;88.20
76305;DHT22;65111;50.536;19.204;2023-03-21T02:04:42;9.30;88.20
76305;DHT22;65111;50.536;19.204;2023-03-21T02:07:29;9.20;88.30
76305;DHT22;65111;50.536;19.204;2023-03-21T02:09:57;9.20;88.20
76305;DHT22;65111;50.536;19.204;2023-03-21T02:12:25;9.20;88.20
76305;DHT22;65111;50.536;19.204;2023-03-21T02:14:52;9.20;88.50
76305;DHT22;65111;50.536;19.204;2023-03-21T02:31:24;9.20;88.60
76305;DHT22;65111;50.536;19.204;2023-03-21T02:42:17;9.20;88.70
76305;DHT22;65111;50.536;19.204;2023-03-21T02:50:50;9.20;88.60
76305;DHT22;65111;50.536;19.204;2023-03-21T02:53:20;9.20;88.60
76305;DHT22;65111;50.536;19.204;2023-03-21T02:55:48;9.10;88.70
76305;DHT22;65111;50.536;19.204;2023-03-21T02:58:19;9.10;88.60
76305;DHT22;65111;50.536;19.204;2023-03-21T03:00:46;9.00;88.50
76305;DHT22;65111;50.536;19.204;2023-03-21T03:03:13;9.10;88.60
76305;DHT22;65111;50.536;19.204;2023-03-21T03:05:43;9.00;88.80
76305;DHT22;65111;50.536;19.204;2023-03-21T03:16:27;8.90;88.80
76305;DHT22;65111;50.536;19.204;2023-03-21T03:19:04;9.00;88.70
76305;DHT22;65111;50.536;19.204;2023-03-21T03:21:54;8.90;88.80
76305;DHT22;65111;50.536;19.204;2023-03-21T03:24:33;8.90;88.70
76305;DHT22;65111;50.536;19.204;2023-03-21T03:27:08;9.00;88.70
76305;DHT22;65111;50.536;19.204;2023-03-21T03:29:38;8.90;88.80
76305;DHT22;65111;50.536;19.204;2023-03-21T03:32:33;9.00;88.80
76305;DHT22;65111;50.536;19.204;2023-03-21T03:35:03;9.00;88.90
76305;DHT22;65111;50.536;19.204;2023-03-21T03:37:35;8.90;89.00
76305;DHT22;65111;50.536;19.204;2023-03-21T03:40:07;9.00;89.00
76305;DHT22;65111;50.536;19.204;2023-03-21T03:42:42;9.00;88.90
76305;DHT22;65111;50.536;19.204;2023-03-21T03:45:10;9.00;88.90
76305;DHT22;65111;50.536;19.204;2023-03-21T03:55:54;9.00;89.00
76305;DHT22;65111;50.536;19.204;2023-03-21T03:58:23;9.00;89.00
76305;DHT22;65111;50.536;19.204;2023-03-21T04:00:51;9.00;89.00
76305;DHT22;65111;50.536;19.204;2023-03-21T04:03:17;9.00;89.00
76305;DHT22;65111;50.536;19.204;2023-03-21T04:05:43;9.10;89.00
76305;DHT22;65111;50.536;19.204;2023-03-21T04:08:12;9.00;89.00
76305;DHT22;65111;50.536;19.204;2023-03-21T04:10:40;9.10;88.90
76305;DHT22;65111;50.536;19.204;2023-03-21T04:13:06;9.10;89.00
76305;DHT22;65111;50.536;19.204;2023-03-21T04:15:32;9.10;89.00
76305;DHT22;65111;50.536;19.204;2023-03-21T04:17:58;9.10;89.00
76305;DHT22;65111;50.536;19.204;2023-03-21T04:20:24;9.10;89.00
76305;DHT22;65111;50.536;19.204;2023-03-21T04:22:50;9.10;88.90
76305;DHT22;65111;50.536;19.204;2023-03-21T04:25:17;9.10;89.00
76305;DHT22;65111;50.536;19.204;2023-03-21T04:27:43;9.00;88.90
76305;DHT22;65111;50.536;19.204;2023-03-21T04:30:11;9.00;89.10
76305;DHT22;65111;50.536;19.204;2023-03-21T04:32:38;9.00;89.10
76305;DHT22;65111;50.536;19.204;2023-03-21T04:35:08;9.10;89.00
76305;DHT22;65111;50.536;19.204;2023-03-21T04:37:35;9.10;89.10
76305;DHT22;65111;50.536;19.204;2023-03-21T04:40:04;9.10;89.00
76305;DHT22;65111;50.536;19.204;2023-03-21T04:42:33;9.10;89.00
76305;DHT22;65111;50.536;19.204;2023-03-21T04:44:59;9.10;88.90
76305;DHT22;65111;50.536;19.204;2023-03-21T04:47:26;8.90;89.00
76305;DHT22;65111;50.536;19.204;2023-03-21T04:49:52;9.10;89.00
76305;DHT22;65111;50.536;19.204;2023-03-21T04:52:19;9.10;89.00
76305;DHT22;65111;50.536;19.204;2023-03-21T04:54:45;9.10;89.00
76305;DHT22;65111;50.536;19.204;2023-03-21T04:57:11;9.20;89.00
76305;DHT22;65111;50.536;19.204;2023-03-21T04:59:37;9.10;89.10
76305;DHT22;65111;50.536;19.204;2023-03-21T05:02:03;9.20;89.00
76305;DHT22;65111;50.536;19.204;2023-03-21T05:04:29;9.20;89.00
76305;DHT22;65111;50.536;19.204;2023-03-21T05:06:56;9.10;88.90
76305;DHT22;65111;50.536;19.204;2023-03-21T05:09:22;9.10;88.90
76305;DHT22;65111;50.536;19.204;2023-03-21T05:11:49;9.20;88.90
76305;DHT22;65111;50.536;19.204;2023-03-21T05:14:24;9.20;88.90
76305;DHT22;65111;50.536;19.204;2023-03-21T05:16:51;9.20;88.90
76305;DHT22;65111;50.536;19.204;2023-03-21T05:19:23;9.30;88.80
76305;DHT22;65111;50.536;19.204;2023-03-21T05:21:50;9.30;88.70
76305;DHT22;65111;50.536;19.204;2023-03-21T05:24:19;9.20;88.60
76305;DHT22;65111;50.536;19.204;2023-03-21T05:26:46;9.40;88.70
76305;DHT22;65111;50.536;19.204;2023-03-21T05:29:18;9.30;88.60
76305;DHT22;65111;50.536;19.204;2023-03-21T05:31:44;9.30;88.50
76305;DHT22;65111;50.536;19.204;2023-03-21T05:34:11;9.30;88.50
76305;DHT22;65111;50.536;19.204;2023-03-21T05:36:37;9.40;88.50
76305;DHT22;65111;50.536;19.204;2023-03-21T05:39:04;9.40;88.50
76305;DHT22;65111;50.536;19.204;2023-03-21T05:41:30;9.30;88.60
76305;DHT22;65111;50.536;19.204;2023-03-21T05:43:56;9.40;88.60
76305;DHT22;65111;50.536;19.204;2023-03-21T05:46:22;9.30;88.40
76305;DHT22;65111;50.536;19.204;2023-03-21T05:48:48;9.30;88.40
76305;DHT22;65111;50.536;19.204;2023-03-21T05:51:14;9.30;88.50
76305;DHT22;65111;50.536;19.204;2023-03-21T05:53:40;9.40;88.50
76305;DHT22;65111;50.536;19.204;2023-03-21T05:56:07;9.30;88.40
76305;DHT22;65111;50.536;19.204;2023-03-21T05:58:33;9.40;88.50
76305;DHT22;65111;50.536;19.204;2023-03-21T06:00:59;9.40;88.40
76305;DHT22;65111;50.536;19.204;2023-03-21T06:03:25;9.40;88.30
76305;DHT22;65111;50.536;19.204;2023-03-21T06:05:51;9.50;88.30
76305;DHT22;65111;50.536;19.204;2023-03-21T06:08:17;9.40;88.20
76305;DHT22;65111;50.536;19.204;2023-03-21T06:10:43;9.40;88.40
76305;DHT22;65111;50.536;19.204;2023-03-21T06:13:09;9.40;88.40
76305;DHT22;65111;50.536;19.204;2023-03-21T06:15:35;9.40;88.50
76305;DHT22;65111;50.536;19.204;2023-03-21T06:18:01;9.40;88.50
76305;DHT22;65111;50.536;19.204;2023-03-21T06:20:27;9.40;88.60
76305;DHT22;65111;50.536;19.204;2023-03-21T06:22:53;9.60;88.50
76305;DHT22;65111;50.536;19.204;2023-03-21T06:25:19;9.70;88.50
76305;DHT22;65111;50.536;19.204;2023-03-21T06:27:46;9.80;88.20
76305;DHT22;65111;50.536;19.204;2023-03-21T06:30:12;9.90;88.10
76305;DHT22;65111;50.536;19.204;2023-03-21T06:32:38;10.00;88.00
76305;DHT22;65111;50.536;19.204;2023-03-21T06:35:05;10.30;87.60
76305;DHT22;65111;50.536;19.204;2023-03-21T06:37:32;10.40;87.50
76305;DHT22;65111;50.536;19.204;2023-03-21T06:39:58;10.50;87.10
76305;DHT22;65111;50.536;19.204;2023-03-21T06:42:23;10.60;86.90
76305;DHT22;65111;50.536;19.204;2023-03-21T06:44:49;10.80;86.80
76305;DHT22;65111;50.536;19.204;2023-03-21T06:47:15;10.80;86.50
76305;DHT22;65111;50.536;19.204;2023-03-21T06:49:41;10.90;86.00
76305;DHT22;65111;50.536;19.204;2023-03-21T06:52:09;11.00;85.90
76305;DHT22;65111;50.536;19.204;2023-03-21T06:54:35;11.10;85.80
76305;DHT22;65111;50.536;19.204;2023-03-21T06:57:02;11.00;85.40
76305;DHT22;65111;50.536;19.204;2023-03-21T06:59:28;11.00;85.20
76305;DHT22;65111;50.536;19.204;2023-03-21T07:01:54;11.00;85.10
76305;DHT22;65111;50.536;19.204;2023-03-21T07:04:19;10.90;85.00
76305;DHT22;65111;50.536;19.204;2023-03-21T07:06:45;11.00;84.90
76305;DHT22;65111;50.536;19.204;2023-03-21T07:09:11;11.00;85.00
76305;DHT22;65111;50.536;19.204;2023-03-21T07:11:37;11.10;84.90
76305;DHT22;65111;50.536;19.204;2023-03-21T07:14:04;11.10;84.80
76305;DHT22;65111;50.536;19.204;2023-03-21T07:16:31;11.20;84.50
76305;DHT22;65111;50.536;19.204;2023-03-21T07:18:57;11.10;84.10
76305;DHT22;65111;50.536;19.204;2023-03-21T07:21:23;11.10;84.10
76305;DHT22;65111;50.536;19.204;2023-03-21T07:23:49;11.10;84.20
76305;DHT22;65111;50.536;19.204;2023-03-21T07:26:15;10.90;84.20
76305;DHT22;65111;50.536;19.204;2023-03-21T07:28:43;11.00;84.30
76305;DHT22;65111;50.536;19.204;2023-03-21T07:31:14;11.00;84.40
76305;DHT22;65111;50.536;19.204;2023-03-21T07:33:42;11.00;84.40
76305;DHT22;65111;50.536;19.204;2023-03-21T07:36:12;11.00;84.50
76305;DHT22;65111;50.536;19.204;2023-03-21T07:38:40;11.30;84.40
76305;DHT22;65111;50.536;19.204;2023-03-21T07:41:06;11.50;84.30
76305;DHT22;65111;50.536;19.204;2023-03-21T07:43:32;11.50;84.20
76305;DHT22;65111;50.536;19.204;2023-03-21T07:45:59;11.80;83.90
76305;DHT22;65111;50.536;19.204;2023-03-21T07:48:25;12.10;83.50
76305;DHT22;65111;50.536;19.204;2023-03-21T07:50:51;12.30;83.20
76305;DHT22;65111;50.536;19.204;2023-03-21T07:53:18;12.30;83.10
76305;DHT22;65111;50.536;19.204;2023-03-21T07:55:48;12.60;82.50
76305;DHT22;65111;50.536;19.204;2023-03-21T07:58:14;12.60;82.40
76305;DHT22;65111;50.536;19.204;2023-03-21T08:00:41;12.70;81.60
76305;DHT22;65111;50.536;19.204;2023-03-21T08:03:08;12.80;81.40
76305;DHT22;65111;50.536;19.204;2023-03-21T08:05:35;12.80;80.90
76305;DHT22;65111;50.536;19.204;2023-03-21T08:08:03;12.90;80.60
76305;DHT22;65111;50.536;19.204;2023-03-21T08:10:29;12.90;80.70
76305;DHT22;65111;50.536;19.204;2023-03-21T08:12:56;12.90;80.40
76305;DHT22;65111;50.536;19.204;2023-03-21T08:15:22;12.90;80.10
76305;DHT22;65111;50.536;19.204;2023-03-21T08:17:49;12.80;80.30
76305;DHT22;65111;50.536;19.204;2023-03-21T08:20:19;12.70;80.20
76305;DHT22;65111;50.536;19.204;2023-03-21T08:22:47;12.70;80.20
76305;DHT22;65111;50.536;19.204;2023-03-21T08:25:14;12.70;80.30
76305;DHT22;65111;50.536;19.204;2023-03-21T08:27:43;12.70;80.10
76305;DHT22;65111;50.536;19.204;2023-03-21T08:30:12;12.70;80.10
76305;DHT22;65111;50.536;19.204;2023-03-21T08:32:39;12.60;80.50
76305;DHT22;65111;50.536;19.204;2023-03-21T08:35:08;12.50;80.30
76305;DHT22;65111;50.536;19.204;2023-03-21T08:37:36;12.20;80.60
76305;DHT22;65111;50.536;19.204;2023-03-21T08:40:03;12.10;80.80
76305;DHT22;65111;50.536;19.204;2023-03-21T08:42:33;12.20;81.00
76305;DHT22;65111;50.536;19.204;2023-03-21T08:44:59;12.30;80.80
76305;DHT22;65111;50.536;19.204;2023-03-21T08:47:25;12.30;80.70
76305;DHT22;65111;50.536;19.204;2023-03-21T08:49:51;12.40;80.80
76305;DHT22;65111;50.536;19.204;2023-03-21T08:52:17;12.60;80.90
76305;DHT22;65111;50.536;19.204;2023-03-21T08:54:43;12.70;80.10
76305;DHT22;65111;50.536;19.204;2023-03-21T08:57:09;12.80;79.90
76305;DHT22;65111;50.536;19.204;2023-03-21T08:59:36;12.90;79.50
76305;DHT22;65111;50.536;19.204;2023-03-21T09:02:03;12.90;78.80
76305;DHT22;65111;50.536;19.204;2023-03-21T09:04:29;12.80;78.10
76305;DHT22;65111;50.536;19.204;2023-03-21T09:06:55;12.60;78.90
76305;DHT22;65111;50.536;19.204;2023-03-21T09:09:21;12.40;79.30
76305;DHT22;65111;50.536;19.204;2023-03-21T09:11:47;12.10;79.90
76305;DHT22;65111;50.536;19.204;2023-03-21T09:14:13;12.20;80.60
76305;DHT22;65111;50.536;19.204;2023-03-21T09:16:40;12.40;80.80
76305;DHT22;65111;50.536;19.204;2023-03-21T09:19:06;13.00;79.50
76305;DHT22;65111;50.536;19.204;2023-03-21T09:21:33;13.20;78.20
76305;DHT22;65111;50.536;19.204;2023-03-21T09:24:00;13.30;77.50
76305;DHT22;65111;50.536;19.204;2023-03-21T09:26:27;13.10;77.40
76305;DHT22;65111;50.536;19.204;2023-03-21T09:28:55;12.90;77.80
76305;DHT22;65111;50.536;19.204;2023-03-21T09:31:21;12.90;78.30
76305;DHT22;65111;50.536;19.204;2023-03-21T09:33:49;12.70;78.30
76305;DHT22;65111;50.536;19.204;2023-03-21T09:36:16;12.80;78.10
76305;DHT22;65111;50.536;19.204;2023-03-21T09:38:50;12.90;78.10
76305;DHT22;65111;50.536;19.204;2023-03-21T09:41:38;13.30;77.80
76305;DHT22;65111;50.536;19.204;2023-03-21T09:44:31;13.70;76.70
76305;DHT22;65111;50.536;19.204;2023-03-21T09:47:13;14.30;75.20
76305;DHT22;65111;50.536;19.204;2023-03-21T09:49:48;14.80;73.70
76305;DHT22;65111;50.536;19.204;2023-03-21T09:52:46;15.10;72.80
76305;DHT22;65111;50.536;19.204;2023-03-21T09:55:21;15.30;71.90
76305;DHT22;65111;50.536;19.204;2023-03-21T09:57:56;15.40;70.40
76305;DHT22;65111;50.536;19.204;2023-03-21T10:00:34;15.50;70.00
76305;DHT22;65111;50.536;19.204;2023-03-21T10:03:04;15.60;69.00
76305;DHT22;65111;50.536;19.204;2023-03-21T10:05:34;15.70;69.00
76305;DHT22;65111;50.536;19.204;2023-03-21T10:08:08;16.00;68.70
76305;DHT22;65111;50.536;19.204;2023-03-21T10:11:00;16.50;68.50
76305;DHT22;65111;50.536;19.204;2023-03-21T10:13:32;17.60;65.90
76305;DHT22;65111;50.536;19.204;2023-03-21T10:16:05;18.60;63.20
76305;DHT22;65111;50.536;19.204;2023-03-21T10:18:35;19.30;60.90
76305;DHT22;65111;50.536;19.204;2023-03-21T10:21:04;19.90;59.90
76305;DHT22;65111;50.536;19.204;2023-03-21T10:23:30;20.60;57.50
76305;DHT22;65111;50.536;19.204;2023-03-21T10:26:00;21.60;55.70
76305;DHT22;65111;50.536;19.204;2023-03-21T10:28:32;22.30;54.00
76305;DHT22;65111;50.536;19.204;2023-03-21T10:31:01;22.50;52.90
76305;DHT22;65111;50.536;19.204;2023-03-21T10:33:43;22.00;53.30
76305;DHT22;65111;50.536;19.204;2023-03-21T10:36:14;21.60;54.10
76305;DHT22;65111;50.536;19.204;2023-03-21T10:38:45;21.00;54.50
76305;DHT22;65111;50.536;19.204;2023-03-21T10:41:12;20.30;55.40
76305;DHT22;65111;50.536;19.204;2023-03-21T10:43:39;19.50;55.70
76305;DHT22;65111;50.536;19.204;2023-03-21T10:48:39;18.70;57.40
76305;DHT22;65111;50.536;19.204;2023-03-21T10:51:07;18.80;57.10
76305;DHT22;65111;50.536;19.204;2023-03-21T10:53:38;18.90;56.60
76305;DHT22;65111;50.536;19.204;2023-03-21T10:56:08;18.60;56.60
76305;DHT22;65111;50.536;19.204;2023-03-21T10:58:38;18.30;57.40
76305;DHT22;65111;50.536;19.204;2023-03-21T11:01:11;17.70;59.00
76305;DHT22;65111;50.536;19.204;2023-03-21T11:03:44;17.00;60.20
76305;DHT22;65111;50.536;19.204;2023-03-21T11:08:48;16.20;62.20
76305;DHT22;65111;50.536;19.204;2023-03-21T11:11:37;15.90;62.80
76305;DHT22;65111;50.536;19.204;2023-03-21T11:14:07;15.50;63.30
76305;DHT22;65111;50.536;19.204;2023-03-21T11:19:15;15.00;65.30
76305;DHT22;65111;50.536;19.204;2023-03-21T11:21:42;14.90;65.80
76305;DHT22;65111;50.536;19.204;2023-03-21T11:24:13;14.70;66.40
76305;DHT22;65111;50.536;19.204;2023-03-21T11:26:42;14.80;66.30
76305;DHT22;65111;50.536;19.204;2023-03-21T11:29:25;14.80;65.80
76305;DHT22;65111;50.536;19.204;2023-03-21T11:31:51;14.70;65.90
76305;DHT22;65111;50.536;19.204;2023-03-21T11:34:28;14.60;66.70
76305;DHT22;65111;50.536;19.204;2023-03-21T11:37:01;14.70;67.20
76305;DHT22;65111;50.536;19.204;2023-03-21T11:39:32;14.90;67.40
76305;DHT22;65111;50.536;19.204;2023-03-21T11:41:58;15.50;66.50
76305;DHT22;65111;50.536;19.204;2023-03-21T11:44:34;16.80;63.50
76305;DHT22;65111;50.536;19.204;2023-03-21T11:47:01;17.70;60.00
76305;DHT22;65111;50.536;19.204;2023-03-21T11:49:27;18.10;59.20
76305;DHT22;65111;50.536;19.204;2023-03-21T12:00:23;18.40;57.40
76305;DHT22;65111;50.536;19.204;2023-03-21T12:03:35;18.10;57.10
76305;DHT22;65111;50.536;19.204;2023-03-21T12:09:12;17.30;57.90
76305;DHT22;65111;50.536;19.204;2023-03-21T12:17:46;16.80;59.90
76305;DHT22;65111;50.536;19.204;2023-03-21T12:20:18;16.70;59.80
76305;DHT22;65111;50.536;19.204;2023-03-21T12:23:27;16.60;59.60
76305;DHT22;65111;50.536;19.204;2023-03-21T12:39:41;14.90;63.20
76305;DHT22;65111;50.536;19.204;2023-03-21T12:47:47;14.40;64.70
76305;DHT22;65111;50.536;19.204;2023-03-21T12:50:25;14.20;65.40
76305;DHT22;65111;50.536;19.204;2023-03-21T12:52:58;14.00;66.40
76305;DHT22;65111;50.536;19.204;2023-03-21T12:55:33;13.80;66.90
76305;DHT22;65111;50.536;19.204;2023-03-21T12:58:14;13.70;67.40
76305;DHT22;65111;50.536;19.204;2023-03-21T13:00:48;13.70;67.90
76305;DHT22;65111;50.536;19.204;2023-03-21T13:06:05;13.70;68.20
76305;DHT22;65111;50.536;19.204;2023-03-21T13:08:52;13.70;68.00
76305;DHT22;65111;50.536;19.204;2023-03-21T13:11:24;13.60;68.30
76305;DHT22;65111;50.536;19.204;2023-03-21T13:14:00;13.50;68.60
76305;DHT22;65111;50.536;19.204;2023-03-21T13:19:27;13.40;68.80
76305;DHT22;65111;50.536;19.204;2023-03-21T13:25:16;13.40;69.10
76305;DHT22;65111;50.536;19.204;2023-03-21T13:27:43;13.50;69.10
76305;DHT22;65111;50.536;19.204;2023-03-21T13:30:21;13.40;68.90
76305;DHT22;65111;50.536;19.204;2023-03-21T13:32:49;13.50;68.90
76305;DHT22;65111;50.536;19.204;2023-03-21T13:35:25;13.40;68.90
76305;DHT22;65111;50.536;19.204;2023-03-21T13:38:02;13.40;69.20
76305;DHT22;65111;50.536;19.204;2023-03-21T13:40:49;13.60;69.10
76305;DHT22;65111;50.536;19.204;2023-03-21T13:43:39;13.70;69.00
76305;DHT22;65111;50.536;19.204;2023-03-21T13:48:54;13.90;68.50
76305;DHT22;65111;50.536;19.204;2023-03-21T13:51:41;13.90;68.20
76305;DHT22;65111;50.536;19.204;2023-03-21T14:01:40;13.80;68.40
76305;DHT22;65111;50.536;19.204;2023-03-21T14:04:26;13.90;68.50
76305;DHT22;65111;50.536;19.204;2023-03-21T14:06:56;13.90;68.20
76305;DHT22;65111;50.536;19.204;2023-03-21T14:12:16;14.00;67.70
76305;DHT22;65111;50.536;19.204;2023-03-21T14:14:50;13.80;67.60
76305;DHT22;65111;50.536;19.204;2023-03-21T14:20:02;13.70;68.00
76305;DHT22;65111;50.536;19.204;2023-03-21T14:22:35;13.60;68.00
76305;DHT22;65111;50.536;19.204;2023-03-21T14:25:02;13.50;68.30
76305;DHT22;65111;50.536;19.204;2023-03-21T14:27:33;13.40;68.70
76305;DHT22;65111;50.536;19.204;2023-03-21T14:30:01;13.40;68.70
76305;DHT22;65111;50.536;19.204;2023-03-21T14:32:29;13.50;68.80
76305;DHT22;65111;50.536;19.204;2023-03-21T14:34:58;13.60;68.80
76305;DHT22;65111;50.536;19.204;2023-03-21T14:37:37;13.70;68.50
76305;DHT22;65111;50.536;19.204;2023-03-21T14:40:07;13.80;68.10
76305;DHT22;65111;50.536;19.204;2023-03-21T14:42:35;14.00;67.80
76305;DHT22;65111;50.536;19.204;2023-03-21T14:45:19;14.10;67.20
76305;DHT22;65111;50.536;19.204;2023-03-21T14:47:56;14.20;67.00
76305;DHT22;65111;50.536;19.204;2023-03-21T14:50:50;14.20;66.80
76305;DHT22;65111;50.536;19.204;2023-03-21T14:53:20;14.20;66.50
76305;DHT22;65111;50.536;19.204;2023-03-21T14:56:00;14.20;65.90
76305;DHT22;65111;50.536;19.204;2023-03-21T14:58:29;14.00;66.00
76305;DHT22;65111;50.536;19.204;2023-03-21T15:01:04;13.80;66.50
76305;DHT22;65111;50.536;19.204;2023-03-21T15:03:30;13.60;66.40
76305;DHT22;65111;50.536;19.204;2023-03-21T15:05:58;13.50;67.00
76305;DHT22;65111;50.536;19.204;2023-03-21T15:08:27;13.40;67.40
76305;DHT22;65111;50.536;19.204;2023-03-21T15:11:11;13.30;67.80
76305;DHT22;65111;50.536;19.204;2023-03-21T15:13:52;13.00;67.90
76305;DHT22;65111;50.536;19.204;2023-03-21T15:16:19;13.00;68.10
76305;DHT22;65111;50.536;19.204;2023-03-21T15:18:46;13.00;68.40
76305;DHT22;65111;50.536;19.204;2023-03-21T15:21:36;12.80;68.10
76305;DHT22;65111;50.536;19.204;2023-03-21T15:24:08;12.80;68.60
76305;DHT22;65111;50.536;19.204;2023-03-21T15:26:39;12.80;68.70
76305;DHT22;65111;50.536;19.204;2023-03-21T15:29:06;12.70;69.40
76305;DHT22;65111;50.536;19.204;2023-03-21T15:31:38;12.70;69.10
76305;DHT22;65111;50.536;19.204;2023-03-21T15:34:06;12.70;69.80
76305;DHT22;65111;50.536;19.204;2023-03-21T15:39:01;12.60;70.00
76305;DHT22;65111;50.536;19.204;2023-03-21T15:41:31;12.70;70.30
76305;DHT22;65111;50.536;19.204;2023-03-21T15:44:12;12.50;70.60
76305;DHT22;65111;50.536;19.204;2023-03-21T15:46:46;12.40;70.50
76305;DHT22;65111;50.536;19.204;2023-03-21T15:51:48;12.20;70.90
76305;DHT22;65111;50.536;19.204;2023-03-21T15:54:28;12.20;70.90
76305;DHT22;65111;50.536;19.204;2023-03-21T15:56:58;12.00;71.30
76305;DHT22;65111;50.536;19.204;2023-03-21T15:59:33;11.80;71.60
76305;DHT22;65111;50.536;19.204;2023-03-21T16:02:00;11.70;71.60
76305;DHT22;65111;50.536;19.204;2023-03-21T16:04:27;11.70;71.80
76305;DHT22;65111;50.536;19.204;2023-03-21T16:06:59;11.70;72.00
76305;DHT22;65111;50.536;19.204;2023-03-21T16:09:25;11.50;72.20
76305;DHT22;65111;50.536;19.204;2023-03-21T16:11:54;11.50;72.20
76305;DHT22;65111;50.536;19.204;2023-03-21T16:14:21;11.30;72.40
76305;DHT22;65111;50.536;19.204;2023-03-21T16:16:49;11.30;72.80
76305;DHT22;65111;50.536;19.204;2023-03-21T16:19:16;11.10;72.90
76305;DHT22;65111;50.536;19.204;2023-03-21T16:21:42;11.10;73.00
76305;DHT22;65111;50.536;19.204;2023-03-21T16:24:09;11.10;73.40
76305;DHT22;65111;50.536;19.204;2023-03-21T16:26:42;10.90;73.60
76305;DHT22;65111;50.536;19.204;2023-03-21T16:29:14;10.90;73.80
76305;DHT22;65111;50.536;19.204;2023-03-21T16:31:41;10.80;74.10
76305;DHT22;65111;50.536;19.204;2023-03-21T16:34:07;10.80;74.30
76305;DHT22;65111;50.536;19.204;2023-03-21T16:36:34;10.70;74.60
76305;DHT22;65111;50.536;19.204;2023-03-21T16:39:17;10.60;74.70
76305;DHT22;65111;50.536;19.204;2023-03-21T16:41:43;10.50;74.80
76305;DHT22;65111;50.536;19.204;2023-03-21T16:44:09;10.50;74.90
76305;DHT22;65111;50.536;19.204;2023-03-21T16:46:35;10.30;75.10
76305;DHT22;65111;50.536;19.204;2023-03-21T16:49:01;10.30;75.00
76305;DHT22;65111;50.536;19.204;2023-03-21T16:51:32;10.20;75.10
76305;DHT22;65111;50.536;19.204;2023-03-21T16:53:59;10.20;75.20
76305;DHT22;65111;50.536;19.204;2023-03-21T16:56:29;10.10;75.40
76305;DHT22;65111;50.536;19.204;2023-03-21T16:58:56;10.10;75.50
76305;DHT22;65111;50.536;19.204;2023-03-21T17:01:24;10.00;75.70
76305;DHT22;65111;50.536;19.204;2023-03-21T17:03:55;9.90;75.90
76305;DHT22;65111;50.536;19.204;2023-03-21T17:06:25;9.90;76.20
76305;DHT22;65111;50.536;19.204;2023-03-21T17:08:52;9.90;76.20
76305;DHT22;65111;50.536;19.204;2023-03-21T17:11:20;9.80;76.40
76305;DHT22;65111;50.536;19.204;2023-03-21T17:13:51;9.70;76.70
76305;DHT22;65111;50.536;19.204;2023-03-21T17:16:20;9.70;76.80
76305;DHT22;65111;50.536;19.204;2023-03-21T17:18:47;9.70;77.20
76305;DHT22;65111;50.536;19.204;2023-03-21T17:21:18;9.50;77.50
76305;DHT22;65111;50.536;19.204;2023-03-21T17:23:45;9.60;77.60
76305;DHT22;65111;50.536;19.204;2023-03-21T17:26:19;9.60;77.70
76305;DHT22;65111;50.536;19.204;2023-03-21T17:28:45;9.50;77.90
76305;DHT22;65111;50.536;19.204;2023-03-21T17:31:16;9.50;77.90
76305;DHT22;65111;50.536;19.204;2023-03-21T17:33:44;9.50;78.00
76305;DHT22;65111;50.536;19.204;2023-03-21T17:36:15;9.40;78.10
76305;DHT22;65111;50.536;19.204;2023-03-21T17:38:42;9.40;78.30
76305;DHT22;65111;50.536;19.204;2023-03-21T17:41:10;9.40;78.50
76305;DHT22;65111;50.536;19.204;2023-03-21T17:43:37;9.40;78.70